Time;durP1;ratioP1;P1;durP2;ratioP2;P2;SDS_P1;SDS_P2;PMS_P1;PMS_P2;Temp;Humidity;BMP_temperature;BMP_pressure;BME280_temperature;BME280_humidity;BME280_pressure;Samples;Min_cycle;Max_cycle;Signal;HPM_P1;HPM_P2
2022/03/16 00:02:02;;;;;;;125.72;56.72;;;;;;;1.95;100.00;102340.00;10209038;29;20027;-93
2022/03/16 00:07:02;;;;;;;124.63;56.65;;;;;;;1.91;100.00;102355.75;10208418;29;20059;-92
2022/03/16 00:12:03;;;;;;;111.07;53.13;;;;;;;1.55;100.00;102298.84;10209313;29;20027;-93
2022/03/16 00:17:04;;;;;;;116.22;52.35;;;;;;;2.25;100.00;102451.88;10208885;29;20579;-93
2022/03/16 00:22:05;;;;;;;104.38;51.28;;;;;;;1.41;100.00;102289.44;10207417;29;20043;-93
2022/03/16 00:27:05;;;;;;;102.38;50.30;;;;;;;1.47;100.00;102311.50;10205903;29;20442;-93
2022/03/16 00:32:06;;;;;;;110.35;51.70;;;;;;;1.87;100.00;102397.81;10206464;28;20394;-92
2022/03/16 00:37:07;;;;;;;113.57;51.13;;;;;;;2.24;100.00;102461.91;10196826;29;20036;-92
2022/03/16 00:42:07;;;;;;;106.57;49.72;;;;;;;2.09;100.00;102482.50;10212173;29;20027;-93
2022/03/16 00:47:08;;;;;;;121.85;54.63;;;;;;;1.49;100.00;102383.63;10228344;29;20604;-93
2022/03/16 00:52:09;;;;;;;110.88;52.78;;;;;;;1.67;100.00;102415.31;10211602;29;20027;-93
2022/03/16 00:57:15;;;;;;;112.47;52.45;;;;;;;1.18;100.00;102347.94;10212657;29;20507;-93
2022/03/16 01:02:16;;;;;;;108.03;49.30;;;;;;;1.17;100.00;102378.75;10227777;29;20126;-94
2022/03/16 01:07:16;;;;;;;112.15;49.20;;;;;;;1.66;100.00;102455.19;10211579;29;20038;-93
2022/03/16 01:12:17;;;;;;;107.93;47.83;;;;;;;1.03;100.00;102347.59;10211256;29;20042;-93
2022/03/16 01:17:17;;;;;;;117.32;50.65;;;;;;;1.12;100.00;102370.25;10210935;29;20027;-93
2022/03/16 01:22:18;;;;;;;116.05;50.30;;;;;;;1.44;100.00;102418.50;10226576;29;20054;-93
2022/03/16 01:27:18;;;;;;;130.80;58.80;;;;;;;1.80;100.00;102457.34;10210667;29;20077;-93
2022/03/16 01:32:19;;;;;;;118.43;53.50;;;;;;;1.81;100.00;102459.03;10226146;29;20026;-93
2022/03/16 01:37:19;;;;;;;123.03;58.55;;;;;;;1.63;100.00;102419.34;10226729;29;20090;-93
2022/03/16 01:42:21;;;;;;;126.70;58.08;;;;;;;1.34;100.00;102368.91;10210292;28;20039;-93
2022/03/16 01:47:22;;;;;;;127.55;59.40;;;;;;;1.67;100.00;102446.03;10226971;29;20130;-93
2022/03/16 01:52:23;;;;;;;102.00;53.10;;;;;;;1.55;100.00;102420.13;10194585;29;20042;-93
2022/03/16 01:57:24;;;;;;;111.22;52.00;;;;;;;0.63;100.00;102255.91;10194492;29;20492;-93
2022/03/16 02:02:24;;;;;;;105.10;51.65;;;;;;;1.42;100.00;102369.81;10194831;29;20063;-93
2022/03/16 02:07:25;;;;;;;105.07;47.53;;;;;;;1.37;100.00;102402.00;10194155;29;20118;-93
2022/03/16 02:12:25;;;;;;;102.85;47.08;;;;;;;1.28;100.00;102381.25;10193709;29;20035;-93
2022/03/16 02:17:26;;;;;;;100.45;44.45;;;;;;;0.94;100.00;102356.69;10193095;29;20020;-93
2022/03/16 02:22:26;;;;;;;96.25;43.85;;;;;;;0.95;100.00;102421.63;10224477;29;20038;-93
2022/03/16 02:27:27;;;;;;;96.47;42.85;;;;;;;1.12;100.00;102447.06;10193107;29;20034;-93
2022/03/16 02:32:28;;;;;;;93.47;42.00;;;;;;;1.03;100.00;102472.38;10223880;29;20027;-93
2022/03/16 02:37:28;;;;;;;91.43;40.90;;;;;;;1.00;100.00;102468.09;10192577;29;20480;-93
2022/03/16 02:42:29;;;;;;;91.03;41.80;;;;;;;0.87;100.00;102459.50;10207430;29;20031;-93
2022/03/16 02:47:29;;;;;;;86.88;41.03;;;;;;;0.37;100.00;102382.16;10207752;29;20034;-93
2022/03/16 02:52:30;;;;;;;99.72;44.40;;;;;;;0.03;100.00;102338.53;10192098;29;20121;-92
2022/03/16 02:57:31;;;;;;;91.97;42.38;;;;;;;0.94;100.00;102520.22;10190128;29;20043;-93
2022/03/16 03:02:31;;;;;;;90.45;42.85;;;;;;;0.43;100.00;102443.00;10191449;29;20468;-93
2022/03/16 03:07:32;;;;;;;92.82;42.80;;;;;;;0.83;100.00;102495.16;10191488;29;20063;-92
2022/03/16 03:12:34;;;;;;;104.65;45.10;;;;;;;0.17;100.00;102392.19;10206739;29;20042;-93
2022/03/16 03:17:35;;;;;;;101.68;43.65;;;;;;;1.47;100.00;102591.03;10206561;29;20019;-92
2022/03/16 03:22:35;;;;;;;99.38;43.83;;;;;;;0.34;100.00;102392.41;10207097;29;20083;-92
2022/03/16 03:27:36;;;;;;;114.05;47.10;;;;;;;0.17;100.00;102348.88;10191424;29;20254;-94
2022/03/16 03:32:36;;;;;;;107.03;45.08;;;;;;;-0.02;100.00;102349.81;10206461;29;20039;-94
2022/03/16 03:37:37;;;;;;;116.35;48.30;;;;;;;0.30;100.00;102391.00;10191052;29;20031;-94
2022/03/16 03:42:38;;;;;;;117.20;54.38;;;;;;;1.09;100.00;102506.16;10237394;29;20066;-93
2022/03/16 03:47:38;;;;;;;120.85;54.80;;;;;;;0.88;100.00;102433.22;10206134;29;20118;-93
2022/03/16 03:52:39;;;;;;;126.65;56.63;;;;;;;1.15;100.00;102482.00;10190216;29;20051;-93
2022/03/16 03:57:39;;;;;;;115.32;51.65;;;;;;;0.64;100.00;102387.69;10189934;29;20075;-93
2022/03/16 04:02:49;;;;;;;123.82;50.30;;;;;;;1.22;100.00;102520.25;10206500;29;20039;-93
2022/03/16 04:07:49;;;;;;;105.80;48.20;;;;;;;0.45;100.00;102367.81;10180245;28;20079;-92
2022/03/16 04:12:50;;;;;;;105.97;49.00;;;;;;;0.13;100.00;102330.38;10195041;29;20443;-93
2022/03/16 04:17:50;;;;;;;124.57;49.92;;;;;;;1.66;100.00;102620.81;10213504;29;20102;-93
2022/03/16 04:22:51;;;;;;;115.18;49.22;;;;;;;1.10;100.00;102548.59;10197328;29;20102;-93
2022/03/16 04:27:51;;;;;;;117.47;50.38;;;;;;;1.10;100.00;102525.00;10196803;29;20391;-93
2022/03/16 04:32:52;;;;;;;121.78;50.15;;;;;;;0.53;100.00;102435.66;10196425;29;20550;-93
2022/03/16 04:37:53;;;;;;;116.35;50.67;;;;;;;1.12;100.00;102554.72;10197091;29;20438;-93
2022/03/16 04:42:53;;;;;;;113.03;50.17;;;;;;;1.49;100.00;102589.91;10196523;29;20027;-92
2022/03/16 04:47:54;;;;;;;122.72;51.92;;;;;;;0.69;100.00;102439.59;10211821;29;20062;-93
2022/03/16 04:52:58;;;;;;;133.13;56.78;;;;;;;0.30;100.00;102370.19;10211972;29;20027;-93
2022/03/16 04:58:00;;;;;;;154.00;60.42;;;;;;;1.49;100.00;102578.19;10197083;29;20430;-93
2022/03/16 05:03:01;;;;;;;135.75;58.33;;;;;;;0.00;100.00;102325.31;10227937;29;20170;-93
2022/03/16 05:08:01;;;;;;;143.18;58.90;;;;;;;0.44;100.00;102376.97;10211704;29;20432;-93
2022/03/16 05:13:02;;;;;;;147.05;61.92;;;;;;;0.76;100.00;102405.44;10227169;29;20054;-93
2022/03/16 05:18:03;;;;;;;145.02;62.42;;;;;;;1.44;100.00;102526.22;10226735;28;20027;-93
2022/03/16 05:23:03;;;;;;;153.07;64.70;;;;;;;1.32;100.00;102465.88;10226953;29;20118;-92
2022/03/16 05:28:04;;;;;;;152.45;63.58;;;;;;;0.22;100.00;102306.94;10202521;29;20028;-92
2022/03/16 05:33:04;;;;;;;135.10;61.35;;;;;;;1.68;100.00;102536.50;10203174;29;20449;-93
2022/03/16 05:38:07;;;;;;;155.15;59.83;;;;;;;1.31;100.00;102469.63;10202379;29;20034;-92
2022/03/16 05:43:08;;;;;;;123.30;55.33;;;;;;;1.15;100.00;102435.88;10205281;29;20100;-92
2022/03/16 05:48:08;;;;;;;146.85;54.72;;;;;;;1.32;100.00;102464.03;10194301;29;20024;-92
2022/03/16 05:53:09;;;;;;;135.20;53.50;;;;;;;1.69;100.00;102533.59;10193529;29;20027;-92
2022/03/16 05:58:09;;;;;;;127.28;54.47;;;;;;;1.36;100.00;102479.00;10209497;29;20119;-92
2022/03/16 06:03:11;;;;;;;126.55;57.72;;;;;;;1.39;100.00;102492.25;10225145;29;20066;-92
2022/03/16 06:08:12;;;;;;;132.88;57.75;;;;;;;0.96;100.00;102382.63;10216409;29;20083;-93
2022/03/16 06:13:12;;;;;;;133.65;61.13;;;;;;;1.20;100.00;102435.44;10184756;29;20063;-92
2022/03/16 06:18:13;;;;;;;135.80;57.10;;;;;;;1.85;100.00;102504.91;10185266;29;20053;-92
2022/03/16 06:23:13;;;;;;;134.05;55.60;;;;;;;1.74;100.00;102517.72;10199549;29;20027;-93
2022/03/16 06:28:14;;;;;;;133.93;60.40;;;;;;;1.90;100.00;102489.84;10204890;29;21088;-92
2022/03/16 06:33:14;;;;;;;137.07;57.58;;;;;;;1.70;100.00;102455.75;10185165;29;20027;-93
2022/03/16 06:38:15;;;;;;;132.98;54.45;;;;;;;0.80;100.00;102283.00;10184918;29;20036;-93
2022/03/16 06:43:15;;;;;;;124.03;52.67;;;;;;;2.49;100.00;102560.75;10201269;29;20122;-92
2022/03/16 06:48:18;;;;;;;138.15;55.85;;;;;;;1.78;100.00;102434.94;10184247;29;20092;-93
2022/03/16 06:53:18;;;;;;;136.10;56.15;;;;;;;2.30;100.00;102521.06;10154005;29;20032;-93
2022/03/16 06:58:19;;;;;;;136.00;57.40;;;;;;;2.61;100.00;102543.16;10184668;29;20400;-93
2022/03/16 07:03:20;;;;;;;117.63;53.25;;;;;;;2.29;100.00;102477.72;10183737;29;20444;-92
2022/03/16 07:08:20;;;;;;;119.72;51.75;;;;;;;3.35;100.00;102646.09;10167431;29;20467;-92
2022/03/16 07:13:21;;;;;;;119.90;50.65;;;;;;;3.27;100.00;102619.69;10151694;29;20031;-93
2022/03/16 07:18:23;;;;;;;118.75;50.65;;;;;;;2.74;100.00;102506.53;10167065;29;20035;-92
2022/03/16 07:23:24;;;;;;;109.10;50.53;;;;;;;3.13;100.00;102558.56;10183960;29;20031;-93
2022/03/16 07:28:25;;;;;;;114.65;52.75;;;;;;;2.81;100.00;102505.72;10167047;29;20162;-92
2022/03/16 07:33:25;;;;;;;117.70;50.63;;;;;;;3.08;100.00;102511.06;10183208;29;20543;-93
2022/03/16 07:38:26;;;;;;;112.15;49.70;;;;;;;3.48;100.00;102566.69;10182832;29;20039;-92
2022/03/16 07:43:27;;;;;;;107.85;46.40;;;;;;;4.04;100.00;102616.88;10182600;29;20027;-93
2022/03/16 07:48:27;;;;;;;109.28;47.42;;;;;;;3.88;100.00;102603.22;10183312;29;20028;-93
2022/03/16 07:53:28;;;;;;;94.22;43.72;;;;;;;3.97;100.00;102602.19;10182706;29;20028;-93
2022/03/16 07:58:28;;;;;;;103.38;45.92;;;;;;;3.57;100.00;102509.34;10199073;29;20054;-93
2022/03/16 08:03:29;;;;;;;108.85;47.80;;;;;;;4.32;100.00;102583.81;10183081;29;20403;-93
2022/03/16 08:08:31;;;;;;;93.93;43.67;;;;;;;4.60;100.00;102582.44;10167362;29;20137;-93
2022/03/16 08:13:32;;;;;;;84.75;41.20;;;;;;;4.53;100.00;102535.06;10182633;29;20122;-94
2022/03/16 08:18:34;;;;;;;91.93;43.55;;;;;;;5.22;100.00;102632.78;10182314;29;20178;-91
2022/03/16 08:23:34;;;;;;;83.05;39.17;;;;;;;5.46;100.00;102646.34;10183365;29;20444;-94
2022/03/16 08:28:35;;;;;;;79.18;38.80;;;;;;;5.67;100.00;102642.16;10182053;29;20028;-91
2022/03/16 08:33:35;;;;;;;78.60;39.88;;;;;;;5.34;100.00;102534.94;10202637;29;20042;-92
2022/03/16 08:38:37;;;;;;;77.50;39.25;;;;;;;5.85;100.00;102571.69;10205675;29;20123;-93
2022/03/16 08:43:38;;;;;;;77.18;38.53;;;;;;;5.91;100.00;102533.69;10196824;29;20035;-94
2022/03/16 08:48:38;;;;;;;71.65;37.25;;;;;;;6.15;100.00;102532.69;10194482;29;20034;-93
2022/03/16 08:53:39;;;;;;;68.80;35.72;;;;;;;6.17;100.00;102525.16;10168378;29;20222;-94
2022/03/16 08:58:39;;;;;;;62.85;32.92;;;;;;;7.18;100.00;102640.63;10184875;29;20039;-94
2022/03/16 09:03:40;;;;;;;64.82;34.35;;;;;;;7.34;100.00;102656.03;10196574;28;20046;-93
2022/03/16 09:08:41;;;;;;;67.38;34.00;;;;;;;6.85;100.00;102531.47;10195946;29;20036;-93
2022/03/16 09:13:41;;;;;;;57.65;31.42;;;;;;;6.63;100.00;102471.13;10225864;28;20031;-93
2022/03/16 09:18:42;;;;;;;61.10;31.73;;;;;;;6.72;100.00;102421.78;10232230;28;20104;-94
2022/03/16 09:23:42;;;;;;;52.65;29.98;;;;;;;7.87;100.00;102542.41;10196673;29;20034;-94
2022/03/16 09:28:44;;;;;;;46.35;25.85;;;;;;;8.37;100.00;102547.06;10211013;29;20512;-93
2022/03/16 09:33:46;;;;;;;45.08;25.77;;;;;;;7.87;100.00;102407.19;10198127;29;20040;-93
2022/03/16 09:38:46;;;;;;;41.90;23.95;;;;;;;8.04;100.00;102399.50;10201184;29;20719;-94
2022/03/16 09:43:47;;;;;;;36.33;22.05;;;;;;;8.62;100.00;102422.06;10196006;29;20027;-94
2022/03/16 09:48:47;;;;;;;32.97;19.73;;;;;;;9.57;100.00;102512.03;10186748;29;20034;-92
2022/03/16 09:53:48;;;;;;;35.75;20.05;;;;;;;9.15;100.00;102395.84;10220960;29;20527;-94
2022/03/16 09:58:49;;;;;;;31.63;19.10;;;;;;;10.28;100.00;102561.88;10197257;29;20051;-92
2022/03/16 10:03:49;;;;;;;30.17;17.85;;;;;;;10.21;100.00;102461.94;10210020;29;20099;-94
2022/03/16 10:14:14;;;;;;;25.65;16.85;;;;;;;10.97;100.00;102481.72;10228134;29;20139;-94
2022/03/16 10:19:15;;;;;;;30.53;16.63;;;;;;;10.70;100.00;102444.06;10201097;29;20016;-94
2022/03/16 10:24:15;;;;;;;26.13;14.57;;;;;;;10.74;100.00;102402.31;10169528;29;20055;-95
2022/03/16 10:29:19;;;;;;;23.48;15.35;;;;;;;10.18;100.00;102301.91;10154755;29;20459;-95
2022/03/16 10:34:22;;;;;;;24.73;15.90;;;;;;;10.88;100.00;102395.69;10169934;29;20360;-95
2022/03/16 10:39:36;;;;;;;23.17;15.00;;;;;;;11.11;100.00;102351.88;10185346;29;20041;-94
2022/03/16 10:50:10;;;;;;;23.70;14.63;;;;;;;11.82;100.00;102413.31;10196889;29;20037;-93
2022/03/16 10:55:19;;;;;;;22.05;12.88;;;;;;;11.44;100.00;102389.41;10199453;29;20055;-92
2022/03/16 11:00:27;;;;;;;20.58;12.32;;;;;;;11.67;100.00;102371.41;10183941;29;20035;-93
2022/03/16 11:05:28;;;;;;;17.67;11.60;;;;;;;11.86;100.00;102359.34;10217853;29;20487;-94
2022/03/16 11:10:33;;;;;;;19.83;12.43;;;;;;;11.62;100.00;102305.91;10167847;29;20035;-92
2022/03/16 11:15:34;;;;;;;23.25;12.75;;;;;;;12.55;100.00;102416.44;10170327;29;20119;-92
2022/03/16 11:20:34;;;;;;;27.23;14.88;;;;;;;12.31;100.00;102414.38;10222782;29;20122;-93
2022/03/16 11:26:12;;;;;;;21.23;12.52;;;;;;;11.77;100.00;102340.56;10192580;29;20023;-94
2022/03/16 11:31:13;;;;;;;20.95;12.13;;;;;;;12.77;100.00;102438.94;10220114;29;20050;-94
2022/03/16 11:36:38;;;;;;;24.52;12.30;;;;;;;12.82;100.00;102422.53;10223167;29;20054;-93
2022/03/16 11:41:43;;;;;;;20.98;10.77;;;;;;;12.93;98.50;102427.28;10192954;29;20118;-93
2022/03/16 11:46:46;;;;;;;24.48;11.05;;;;;;;12.85;99.80;102348.25;10207511;29;20363;-93
2022/03/16 11:51:59;;;;;;;15.50;10.70;;;;;;;12.89;95.09;102373.53;10197838;29;20039;-93
2022/03/16 11:57:00;;;;;;;17.88;10.73;;;;;;;12.57;95.36;102299.13;10222304;29;20396;-92
2022/03/16 12:02:12;;;;;;;18.73;10.05;;;;;;;12.97;94.30;102320.69;10178028;29;20032;-93
2022/03/16 12:07:17;;;;;;;20.08;11.20;;;;;;;14.57;93.76;102464.75;10206250;29;20073;-92
2022/03/16 12:17:51;;;;;;;16.98;9.50;;;;;;;15.94;84.01;102431.69;10237744;29;20031;-93
2022/03/16 12:22:53;;;;;;;;;;;;;;;16.23;81.63;102445.47;10236695;29;20392;-93
2022/03/16 12:33:26;;;;;;;16.00;9.32;;;;;;;17.12;74.92;102347.94;10244417;29;20053;-93
2022/03/16 12:38:29;;;;;;;13.10;8.95;;;;;;;17.20;70.38;102282.59;10228042;29;20050;-89
2022/03/16 12:43:31;;;;;;;15.25;9.25;;;;;;;17.67;68.71;102350.63;10227566;29;20027;-90
2022/03/16 12:48:35;;;;;;;17.92;11.20;;;;;;;17.23;68.02;102267.31;10194953;29;20020;-92
2022/03/16 12:53:45;;;;;;;12.80;9.73;;;;;;;18.69;67.03;102409.03;10226815;29;20031;-94
2022/03/16 12:58:58;;;;;;;15.80;8.65;;;;;;;17.91;63.78;102273.94;10196839;29;20063;-90
2022/03/16 13:04:00;;;;;;;12.07;8.13;;;;;;;18.16;62.46;102291.91;10210504;29;20042;-91
2022/03/16 13:09:08;;;;;;;13.80;7.70;;;;;;;18.40;61.73;102373.19;10193794;29;20081;-91
2022/03/16 13:14:12;;;;;;;14.95;8.15;;;;;;;18.68;63.39;102323.63;10195459;29;20399;-91
2022/03/16 13:19:25;;;;;;;14.73;9.18;;;;;;;18.64;60.85;102270.34;10242224;29;20069;-90
2022/03/16 13:24:25;;;;;;;13.68;9.30;;;;;;;18.50;60.36;102269.19;10178242;29;20032;-92
2022/03/16 13:29:28;;;;;;;14.63;9.43;;;;;;;18.65;60.84;102274.81;10200712;29;20024;-91
2022/03/16 13:34:32;;;;;;;15.05;10.45;;;;;;;18.68;59.96;102248.31;10201883;29;20024;-91
2022/03/16 13:39:32;;;;;;;20.27;11.00;;;;;;;18.66;60.43;102248.59;10200372;29;20026;-92
2022/03/16 13:44:40;;;;;;;14.82;11.60;;;;;;;18.98;59.63;102194.53;10225370;29;20031;-91
2022/03/16 13:49:41;;;;;;;19.80;12.73;;;;;;;18.25;60.69;102228.97;10225023;29;20082;-91
2022/03/16 13:54:42;;;;;;;18.58;13.07;;;;;;;17.88;59.94;102268.06;10208555;29;20050;-93
2022/03/16 13:59:57;;;;;;;18.58;13.65;;;;;;;16.79;63.64;102131.16;10192811;29;20081;-92
2022/03/16 14:05:00;;;;;;;22.70;14.43;;;;;;;17.34;62.76;102294.97;10224600;29;20386;-90
2022/03/16 14:10:01;;;;;;;24.02;14.18;;;;;;;15.68;65.97;102173.00;10209760;29;20035;-91
2022/03/16 14:15:16;;;;;;;24.23;14.80;;;;;;;15.76;68.00;102188.41;10222811;29;20027;-91
2022/03/16 14:20:18;;;;;;;22.20;14.05;;;;;;;17.12;65.92;102153.13;10237433;28;20034;-92
2022/03/16 14:25:29;;;;;;;18.75;12.77;;;;;;;17.50;60.70;102059.25;10207029;28;20023;-91
2022/03/16 14:30:35;;;;;;;20.33;13.20;;;;;;;17.31;60.42;102155.50;10207520;28;20026;-91
2022/03/16 14:35:36;;;;;;;20.42;13.23;;;;;;;16.04;63.40;102126.28;10241114;28;20105;-93
2022/03/16 14:40:38;;;;;;;20.63;13.75;;;;;;;15.56;66.68;102210.31;10240950;28;20027;-91
2022/03/16 14:45:40;;;;;;;20.25;12.68;;;;;;;14.63;68.52;102152.50;10200909;29;20035;-93
2022/03/16 14:50:43;;;;;;;22.42;13.05;;;;;;;14.73;69.38;102253.31;10199165;29;20020;-91
2022/03/16 14:55:44;;;;;;;22.98;13.88;;;;;;;13.42;72.27;102109.97;10221008;29;20571;-92
2022/03/16 15:00:44;;;;;;;23.90;12.57;;;;;;;13.39;73.95;102146.41;10191822;29;20090;-91
2022/03/16 15:05:45;;;;;;;20.55;13.10;;;;;;;13.34;76.12;102190.56;10222965;29;20032;-94
2022/03/16 15:10:45;;;;;;;18.75;12.32;;;;;;;12.92;77.94;102136.19;10222234;29;20089;-91
2022/03/16 15:15:46;;;;;;;20.45;13.02;;;;;;;12.91;77.98;102144.72;10222514;29;20428;-92
2022/03/16 15:20:47;;;;;;;23.17;13.38;;;;;;;12.55;78.57;102146.59;10207292;29;20051;-95
2022/03/16 15:25:47;;;;;;;19.33;12.70;;;;;;;13.10;80.23;102242.22;10224065;29;20110;-93
2022/03/16 15:30:48;;;;;;;23.02;13.73;;;;;;;12.02;81.46;102092.16;10207250;29;20090;-92
2022/03/16 15:35:48;;;;;;;21.48;11.50;;;;;;;12.61;82.78;102181.56;10190681;29;20046;-92
2022/03/16 15:46:10;;;;;;;22.58;13.23;;;;;;;12.06;84.84;102126.50;10223513;29;20081;-92
2022/03/16 15:51:11;;;;;;;21.77;14.40;;;;;;;12.76;85.25;102216.19;10178143;29;20110;-92
2022/03/16 15:56:12;;;;;;;23.42;13.15;;;;;;;12.04;86.26;102087.25;10174740;29;20206;-92
2022/03/16 16:01:14;;;;;;;18.92;13.15;;;;;;;12.39;87.95;102153.63;10165258;29;20107;-92
2022/03/16 16:06:14;;;;;;;22.33;13.68;;;;;;;11.61;88.76;102033.88;10190607;29;20047;-92
2022/03/16 16:11:15;;;;;;;22.08;13.43;;;;;;;12.03;88.97;102102.97;10190457;29;20059;-91
2022/03/16 16:16:16;;;;;;;25.52;14.13;;;;;;;11.27;90.15;101988.53;10207516;29;20059;-91
2022/03/16 16:21:17;;;;;;;22.52;12.43;;;;;;;11.65;92.44;102079.22;10213777;29;20023;-91
2022/03/16 16:26:18;;;;;;;21.15;13.50;;;;;;;12.06;93.37;102204.63;10209413;29;20109;-91
2022/03/16 16:31:18;;;;;;;23.42;13.32;;;;;;;11.13;95.12;102061.44;10199862;29;20087;-91
2022/03/16 16:36:19;;;;;;;19.58;12.60;;;;;;;11.09;97.59;102113.41;10200214;29;20074;-90
2022/03/16 16:41:20;;;;;;;23.65;13.15;;;;;;;10.36;97.80;102024.03;10212654;29;20026;-93
2022/03/16 16:46:21;;;;;;;18.98;12.35;;;;;;;10.40;99.58;102046.47;10197767;29;20472;-91
2022/03/16 16:51:23;;;;;;;21.35;13.27;;;;;;;10.19;100.00;102055.88;10212483;29;20028;-91
2022/03/16 16:56:26;;;;;;;24.15;12.85;;;;;;;10.05;100.00;102082.66;10164818;29;20126;-92
2022/03/16 17:01:27;;;;;;;19.58;11.88;;;;;;;9.19;100.00;101941.00;10187668;29;20400;-91
2022/03/16 17:06:27;;;;;;;19.98;12.23;;;;;;;9.36;100.00;102035.59;10156127;29;20027;-91
2022/03/16 17:11:28;;;;;;;21.55;11.77;;;;;;;9.34;100.00;102026.75;10187315;29;20106;-90
2022/03/16 17:16:33;;;;;;;18.15;11.27;;;;;;;9.16;100.00;101994.50;10185578;29;20023;-89
2022/03/16 17:21:35;;;;;;;21.88;12.45;;;;;;;8.91;100.00;101988.88;10170831;29;20028;-90
2022/03/16 17:26:35;;;;;;;20.08;11.48;;;;;;;9.48;100.00;102108.09;10171053;29;20148;-92
2022/03/16 17:31:36;;;;;;;17.27;10.30;;;;;;;9.22;100.00;102067.81;10190032;29;20200;-90
2022/03/16 17:36:36;;;;;;;17.00;10.02;;;;;;;9.13;100.00;102101.22;10155884;29;20058;-90
2022/03/16 17:47:15;;;;;;;17.75;10.90;;;;;;;8.19;100.00;101991.50;10155963;29;20044;-94
2022/03/16 17:52:19;;;;;;;25.88;11.15;;;;;;;7.95;100.00;101968.25;10162766;29;20047;-90
2022/03/16 17:57:20;;;;;;;18.65;11.63;;;;;;;8.74;100.00;102116.69;10171438;29;20075;-92
2022/03/16 18:02:21;;;;;;;18.48;10.38;;;;;;;8.64;100.00;102074.06;10170946;29;20028;-91
2022/03/16 18:07:21;;;;;;;17.48;9.63;;;;;;;8.25;100.00;102052.91;10190433;28;20019;-90
2022/03/16 18:17:42;;;;;;;18.85;10.18;;;;;;;7.52;100.00;101929.41;10232346;28;20177;-90
2022/03/16 18:22:42;;;;;;;22.85;10.95;;;;;;;7.88;100.00;101961.94;10216993;28;20031;-91
2022/03/16 18:27:43;;;;;;;18.38;10.75;;;;;;;7.79;100.00;101968.66;10223068;28;20526;-91
2022/03/16 18:32:44;;;;;;;18.02;10.00;;;;;;;8.24;100.00;102054.78;10231584;28;20550;-89
2022/03/16 18:37:44;;;;;;;17.38;10.95;;;;;;;7.88;100.00;102006.66;10250168;28;20023;-89
2022/03/16 18:42:45;;;;;;;19.33;11.60;;;;;;;8.14;100.00;102029.66;10201139;29;20408;-89
2022/03/16 18:47:47;;;;;;;25.15;11.98;;;;;;;8.24;100.00;102049.28;10211586;29;20027;-89
2022/03/16 18:52:52;;;;;;;20.05;11.57;;;;;;;8.18;100.00;102041.06;10190975;29;20126;-88
2022/03/16 18:57:53;;;;;;;18.70;11.38;;;;;;;8.27;100.00;102026.09;10207274;29;20055;-88
2022/03/16 19:02:54;;;;;;;18.48;12.25;;;;;;;8.03;100.00;101986.41;10221316;29;20036;-91
2022/03/16 19:07:55;;;;;;;19.90;11.07;;;;;;;8.19;100.00;101990.66;10188300;29;20339;-89
2022/03/16 19:18:16;;;;;;;23.42;12.45;;;;;;;7.96;100.00;101941.69;10209744;29;20042;-90
2022/03/16 19:23:20;;;;;;;22.88;13.23;;;;;;;8.34;100.00;101998.66;10190233;29;20454;-89
2022/03/16 19:28:23;;;;;;;23.77;12.38;;;;;;;8.60;100.00;102067.28;10188622;29;20031;-90
2022/03/16 19:33:23;;;;;;;35.63;13.88;;;;;;;8.37;100.00;102032.03;10221817;28;20042;-89
2022/03/16 19:38:24;;;;;;;25.77;13.23;;;;;;;7.98;100.00;101983.44;10206497;29;20581;-90
2022/03/16 19:43:26;;;;;;;17.38;11.70;;;;;;;7.56;100.00;101895.06;10198920;29;20113;-89
2022/03/16 19:48:28;;;;;;;22.48;13.00;;;;;;;8.46;100.00;102046.41;10177230;29;20428;-89
2022/03/16 19:53:28;;;;;;;23.42;12.88;;;;;;;8.47;100.00;102040.69;10189868;29;20038;-89
2022/03/16 19:58:30;;;;;;;23.10;13.02;;;;;;;8.28;100.00;102017.63;10173888;29;20047;-89
2022/03/16 20:03:32;;;;;;;23.70;13.48;;;;;;;7.50;100.00;101860.28;10194117;29;20038;-89
2022/03/16 20:08:32;;;;;;;22.08;12.93;;;;;;;8.40;100.00;102008.78;10195722;29;20062;-89
2022/03/16 20:13:35;;;;;;;22.67;13.77;;;;;;;8.12;100.00;101952.22;10177232;29;20034;-90
2022/03/16 20:18:38;;;;;;;26.00;14.23;;;;;;;9.15;100.00;102121.09;10194179;29;20033;-90
2022/03/16 20:23:38;;;;;;;25.35;13.75;;;;;;;8.42;100.00;101979.25;10182121;29;20023;-89
2022/03/16 20:28:40;;;;;;;29.40;15.27;;;;;;;8.25;100.00;101940.41;10186346;29;20031;-89
2022/03/16 20:33:45;;;;;;;24.17;14.55;;;;;;;9.02;100.00;102032.16;10196908;28;20041;-88
2022/03/16 20:38:46;;;;;;;31.40;15.82;;;;;;;8.92;100.00;102029.00;10189167;29;20023;-88
2022/03/16 20:43:46;;;;;;;26.42;15.45;;;;;;;7.81;100.00;101827.63;10180557;29;20028;-89
2022/03/16 20:48:47;;;;;;;24.70;13.85;;;;;;;8.18;100.00;101885.53;10237180;28;20122;-89
2022/03/16 20:53:47;;;;;;;23.05;14.07;;;;;;;8.84;100.00;102021.00;10231554;29;20129;-89
2022/03/16 21:04:07;;;;;;;24.27;14.80;;;;;;;8.80;100.00;102003.25;10149323;29;20071;-89
2022/03/16 21:09:08;;;;;;;24.17;14.40;;;;;;;8.35;100.00;101907.91;10150975;29;20083;-89
2022/03/16 21:14:10;;;;;;;25.33;14.88;;;;;;;8.42;100.00;101935.34;10144259;29;20087;-89
2022/03/16 21:19:11;;;;;;;27.70;15.18;;;;;;;8.89;100.00;101996.50;10159322;29;20066;-89
2022/03/16 21:24:19;;;;;;;26.58;15.40;;;;;;;8.95;100.00;102017.59;10149545;29;20055;-90
2022/03/16 21:29:21;;;;;;;24.88;14.75;;;;;;;8.86;100.00;101991.41;10177351;29;20039;-90
2022/03/16 21:34:21;;;;;;;30.23;16.35;;;;;;;8.73;100.00;101983.22;10158084;29;20124;-90
2022/03/16 21:39:26;;;;;;;27.80;14.65;;;;;;;8.61;100.00;101972.88;10156849;29;20108;-93
2022/03/16 21:44:42;;;;;;;22.73;14.23;;;;;;;8.15;100.00;101880.50;10164591;29;20023;-90
2022/03/16 21:49:43;;;;;;;25.95;15.88;;;;;;;8.44;100.00;101917.63;10182669;29;20044;-91
2022/03/16 21:54:46;;;;;;;23.90;15.25;;;;;;;8.39;100.00;101916.53;10150980;28;20050;-89
2022/03/16 21:59:48;;;;;;;28.70;16.60;;;;;;;8.96;100.00;101997.31;10214135;28;20383;-90
2022/03/16 22:04:49;;;;;;;25.30;15.63;;;;;;;8.89;100.00;102010.22;10207061;28;20027;-90
2022/03/16 22:09:50;;;;;;;28.88;16.30;;;;;;;8.36;100.00;101908.75;10234981;28;20062;-89
2022/03/16 22:14:51;;;;;;;24.83;16.50;;;;;;;8.66;100.00;101964.00;10198559;28;20071;-89
2022/03/16 22:19:52;;;;;;;24.30;14.85;;;;;;;8.88;100.00;102016.75;10188127;28;20016;-89
2022/03/16 22:24:53;;;;;;;26.90;16.20;;;;;;;8.16;100.00;101895.88;10238507;28;20028;-89
2022/03/16 22:29:54;;;;;;;31.27;16.90;;;;;;;8.33;100.00;101931.97;10260000;28;20030;-90
2022/03/16 22:34:54;;;;;;;23.45;15.43;;;;;;;8.53;100.00;101970.38;10236264;28;20122;-90
2022/03/16 22:39:57;;;;;;;27.33;16.55;;;;;;;7.59;100.00;101801.47;10236359;28;20130;-89
2022/03/16 22:44:58;;;;;;;23.80;15.02;;;;;;;8.81;100.00;102015.94;10223663;28;20402;-89
2022/03/16 22:49:58;;;;;;;28.70;16.60;;;;;;;8.65;100.00;101974.16;10242169;28;20106;-90
2022/03/16 22:55:00;;;;;;;26.55;15.85;;;;;;;8.45;100.00;101945.91;10201000;28;20159;-88
2022/03/16 23:00:01;;;;;;;29.65;16.65;;;;;;;8.27;100.00;101944.63;10217298;28;20047;-89
2022/03/16 23:05:01;;;;;;;33.03;17.40;;;;;;;8.26;100.00;101931.97;10248099;28;20031;-89
2022/03/16 23:10:02;;;;;;;28.33;17.08;;;;;;;8.03;100.00;101891.25;10195221;28;20054;-89
2022/03/16 23:15:04;;;;;;;29.77;16.85;;;;;;;8.27;100.00;101930.91;10237650;28;20049;-89
2022/03/16 23:20:05;;;;;;;26.77;16.58;;;;;;;8.06;100.00;101904.56;10235858;28;20010;-89